createdAt,value
2018-11-04T00:01:11.533Z,67.31
2018-11-04T00:03:39.167Z,67.05
2018-11-04T00:06:06.108Z,67.33
2018-11-04T00:08:34.384Z,67.19
2018-11-04T00:11:01.079Z,66.83
2018-11-04T00:13:28.310Z,67.00
2018-11-04T00:15:58.574Z,67.16
2018-11-04T00:18:26.353Z,67.22
2018-11-04T00:20:55.213Z,67.16
2018-11-04T00:23:24.131Z,67.34
2018-11-04T00:25:51.231Z,67.20
2018-11-04T00:28:19.895Z,66.98
2018-11-04T00:30:50.918Z,67.92
2018-11-04T00:33:17.822Z,68.69
2018-11-04T00:35:49.876Z,68.77
2018-11-04T00:38:19.307Z,69.16
2018-11-04T00:40:46.284Z,68.28
2018-11-04T00:43:15.986Z,68.10
2018-11-04T00:45:43.322Z,67.35
2018-11-04T00:48:10.139Z,67.38
2018-11-04T00:50:37.979Z,66.96
2018-11-04T00:53:07.852Z,66.75
2018-11-04T00:55:36.769Z,66.82
2018-11-04T00:58:04.215Z,67.13
2018-11-04T01:03:09.729Z,67.53
2018-11-04T01:05:37.465Z,67.18
2018-11-04T01:08:06.354Z,66.58
2018-11-04T01:10:33.019Z,65.63
2018-11-04T01:13:01.196Z,66.11
2018-11-04T01:15:29.324Z,66.01
2018-11-04T01:17:58.209Z,67.23
2018-11-04T01:20:25.696Z,67.37
2018-11-04T01:22:52.987Z,66.97
2018-11-04T01:25:20.757Z,66.82
2018-11-04T01:27:48.944Z,66.88
2018-11-04T01:30:16.563Z,67.61
2018-11-04T01:35:17.342Z,66.07
2018-11-04T01:43:00.545Z,67.12
2018-11-04T01:45:27.117Z,67.47
2018-11-04T01:47:53.783Z,66.55
2018-11-04T01:50:20.316Z,67.18
2018-11-04T01:52:46.793Z,66.82
2018-11-04T01:55:13.383Z,67.45
2018-11-04T01:57:40.431Z,68.07
2018-11-04T02:00:06.996Z,67.87
2018-11-04T02:02:33.449Z,67.43
2018-11-04T02:05:00.658Z,67.42
2018-11-04T02:07:27.156Z,67.05
2018-11-04T02:09:53.909Z,67.03
2018-11-04T02:12:21.339Z,67.65
2018-11-04T02:14:47.790Z,67.21
2018-11-04T02:17:14.663Z,67.33
2018-11-04T02:19:41.167Z,66.81
2018-11-04T02:22:07.650Z,66.28
2018-11-04T02:24:34.225Z,66.66
2018-11-04T02:27:01.137Z,67.46
2018-11-04T02:29:27.602Z,67.28
2018-11-04T02:31:54.759Z,66.36
2018-11-04T02:34:22.657Z,65.38
2018-11-04T02:36:50.130Z,66.50
2018-11-04T02:39:16.685Z,67.49
2018-11-04T02:41:43.562Z,67.33
2018-11-04T02:44:11.673Z,66.94
2018-11-04T02:46:38.306Z,67.24
2018-11-04T02:49:04.929Z,67.52
2018-11-04T02:51:32.452Z,67.44
2018-11-04T02:53:59.090Z,67.48
2018-11-04T02:58:58.405Z,67.10
2018-11-04T03:01:24.919Z,67.50
2018-11-04T03:03:51.467Z,67.50
2018-11-04T03:06:18.635Z,67.94
2018-11-04T03:08:45.549Z,67.38
2018-11-04T03:11:12.176Z,67.66
2018-11-04T03:13:38.713Z,67.30
2018-11-04T03:16:06.032Z,67.13
2018-11-04T03:18:33.289Z,67.22
2018-11-04T03:21:00.979Z,67.87
2018-11-04T03:23:27.487Z,68.05
2018-11-04T03:25:54.715Z,68.00
2018-11-04T03:28:21.917Z,67.87
2018-11-04T03:30:48.563Z,67.96
2018-11-04T03:33:15.299Z,68.60
2018-11-04T03:35:42.372Z,68.73
2018-11-04T03:38:10.249Z,69.29
2018-11-04T03:40:36.813Z,69.26
2018-11-04T03:43:05.070Z,68.78
2018-11-04T03:45:31.524Z,67.96
2018-11-04T03:47:58.145Z,68.41
2018-11-04T03:50:24.786Z,67.99
2018-11-04T03:52:52.050Z,67.88
2018-11-04T03:55:19.045Z,68.17
2018-11-04T03:57:46.533Z,66.69
2018-11-04T04:00:14.616Z,67.55
2018-11-04T04:02:42.726Z,67.84
2018-11-04T04:05:09.232Z,67.60
2018-11-04T04:07:36.128Z,67.16
2018-11-04T04:10:02.594Z,67.84
2018-11-04T04:12:29.339Z,68.22
2018-11-04T04:14:56.097Z,67.61
2018-11-04T04:17:23.463Z,68.12
2018-11-04T04:19:50.040Z,67.69
2018-11-04T04:22:16.820Z,67.14
2018-11-04T04:24:43.421Z,67.45
2018-11-04T04:27:10.684Z,67.47
2018-11-04T04:29:38.859Z,67.14
2018-11-04T04:32:06.147Z,67.45
2018-11-04T04:34:33.304Z,67.78
2018-11-04T04:36:59.792Z,67.91
2018-11-04T04:39:26.794Z,67.93
2018-11-04T04:41:53.974Z,67.69
2018-11-04T04:44:21.939Z,67.64
2018-11-04T04:46:49.320Z,67.67
2018-11-04T04:49:15.884Z,67.96
2018-11-04T04:51:42.589Z,67.47
2018-11-04T04:54:09.338Z,67.93
2018-11-04T04:56:36.244Z,67.70
2018-11-04T04:59:03.405Z,67.99
2018-11-04T05:01:30.698Z,67.34
2018-11-04T05:03:57.856Z,67.62
2018-11-04T05:06:24.386Z,67.67
2018-11-04T05:08:51.116Z,66.90
2018-11-04T05:11:17.605Z,67.68
2018-11-04T05:13:44.166Z,67.75
2018-11-04T05:16:10.716Z,67.27
2018-11-04T05:18:37.851Z,68.21
2018-11-04T05:21:04.592Z,67.36
2018-11-04T05:23:31.432Z,66.78
2018-11-04T05:25:58.572Z,67.02
2018-11-04T05:28:25.249Z,67.33
2018-11-04T05:30:55.555Z,66.99
2018-11-04T05:33:22.106Z,67.25
2018-11-04T05:35:49.605Z,67.57
2018-11-04T05:38:16.803Z,66.22
2018-11-04T05:40:43.481Z,65.88
2018-11-04T05:43:10.000Z,66.18
2018-11-04T05:45:39.801Z,65.88
2018-11-04T05:48:06.805Z,66.85
2018-11-04T05:50:33.929Z,67.33
2018-11-04T05:53:04.877Z,66.48
2018-11-04T05:55:31.400Z,66.86
2018-11-04T05:57:59.097Z,66.87
2018-11-04T06:00:25.568Z,67.00
2018-11-04T06:02:52.841Z,67.15
2018-11-04T06:05:19.455Z,67.53
2018-11-04T06:07:45.968Z,67.64
2018-11-04T06:10:14.637Z,68.23
2018-11-04T06:12:41.840Z,67.44
2018-11-04T06:15:08.401Z,67.53
2018-11-04T06:17:34.987Z,67.64
2018-11-04T06:20:01.477Z,68.44
2018-11-04T06:22:29.396Z,67.52
2018-11-04T06:24:55.903Z,67.99
2018-11-04T06:27:23.402Z,67.37
2018-11-04T06:29:50.128Z,67.21
2018-11-04T06:32:18.108Z,66.69
2018-11-04T06:34:44.968Z,67.10
2018-11-04T06:37:11.778Z,67.18
2018-11-04T06:39:38.288Z,67.93
2018-11-04T06:42:04.951Z,67.56
2018-11-04T06:44:31.813Z,67.25
2018-11-04T06:46:58.492Z,67.90
2018-11-04T06:49:25.224Z,67.26
2018-11-04T06:51:51.802Z,67.66
2018-11-04T06:54:18.551Z,67.34
2018-11-04T06:56:45.121Z,67.55
2018-11-04T06:59:12.392Z,67.65
2018-11-04T07:01:39.907Z,67.67
2018-11-04T07:04:07.277Z,67.61
2018-11-04T07:06:34.495Z,67.11
2018-11-04T07:09:01.078Z,67.46
2018-11-04T07:11:28.585Z,67.05
2018-11-04T07:13:55.532Z,66.07
2018-11-04T07:16:24.390Z,66.05
2018-11-04T07:18:51.430Z,66.63
2018-11-04T07:21:18.706Z,66.60
2018-11-04T07:23:45.897Z,67.42
2018-11-04T07:26:13.254Z,66.56
2018-11-04T07:28:39.788Z,66.68
2018-11-04T07:31:07.283Z,66.52
2018-11-04T07:33:34.677Z,66.75
2018-11-04T07:36:01.980Z,66.95
2018-11-04T07:38:29.723Z,66.83
2018-11-04T07:40:56.974Z,66.79
2018-11-04T07:43:23.519Z,65.94
2018-11-04T07:45:50.292Z,66.37
2018-11-04T07:48:18.411Z,67.67
2018-11-04T07:50:45.764Z,67.30
2018-11-04T07:53:12.400Z,65.32
2018-11-04T07:55:39.191Z,65.93
2018-11-04T07:58:05.868Z,66.40
2018-11-04T08:00:33.351Z,66.41
2018-11-04T08:03:00.003Z,66.83
2018-11-04T08:05:26.625Z,67.13
2018-11-04T08:07:53.130Z,66.77
2018-11-04T08:10:20.180Z,66.98
2018-11-04T08:12:47.272Z,65.24
2018-11-04T08:15:15.175Z,64.38
2018-11-04T08:17:42.214Z,65.46
2018-11-04T08:20:09.601Z,65.71
2018-11-04T08:22:36.781Z,66.23
2018-11-04T08:25:03.507Z,65.07
2018-11-04T08:27:29.982Z,65.37
2018-11-04T08:29:56.895Z,65.61
2018-11-04T08:32:23.663Z,65.64
2018-11-04T08:34:53.966Z,64.95
2018-11-04T08:37:21.118Z,64.92
2018-11-04T08:39:47.697Z,65.46
2018-11-04T08:42:15.091Z,66.33
2018-11-04T08:44:42.697Z,65.99
2018-11-04T08:47:09.700Z,65.56
2018-11-04T08:49:36.187Z,64.72
2018-11-04T08:52:03.310Z,65.34
2018-11-04T08:54:30.409Z,65.93
2018-11-04T08:56:57.874Z,64.90
2018-11-04T08:59:24.322Z,66.41
2018-11-04T09:01:51.552Z,65.72
2018-11-04T09:04:18.293Z,65.50
2018-11-04T09:06:45.371Z,63.60
2018-11-04T09:09:13.335Z,65.39
2018-11-04T09:11:40.062Z,66.00
2018-11-04T09:14:06.815Z,65.42
2018-11-04T09:16:33.416Z,67.38
2018-11-04T09:19:00.077Z,67.60
2018-11-04T09:21:26.781Z,66.41
2018-11-04T09:23:53.527Z,66.60
2018-11-04T09:26:21.215Z,66.49
2018-11-04T09:28:47.762Z,66.84
2018-11-04T09:31:15.077Z,66.65
2018-11-04T09:33:41.667Z,66.22
2018-11-04T09:36:09.814Z,65.98
2018-11-04T09:38:36.459Z,66.50
2018-11-04T09:41:03.732Z,66.85
2018-11-04T09:43:30.234Z,66.30
2018-11-04T09:45:57.018Z,66.48
2018-11-04T09:48:23.551Z,66.72
2018-11-04T09:50:50.132Z,66.37
2018-11-04T09:53:17.558Z,67.93
2018-11-04T09:55:44.638Z,66.84
2018-11-04T09:58:11.788Z,65.96
2018-11-04T10:00:38.806Z,65.92
2018-11-04T10:03:05.508Z,64.60
2018-11-04T10:08:05.243Z,64.79
2018-11-04T10:10:32.381Z,65.00
2018-11-04T10:12:59.537Z,65.18
2018-11-04T10:15:31.784Z,64.91
2018-11-04T10:17:58.315Z,65.50
2018-11-04T10:20:26.232Z,65.85
2018-11-04T10:22:52.587Z,65.77
2018-11-04T10:25:19.117Z,65.51
2018-11-04T10:27:46.263Z,66.58
2018-11-04T10:30:15.199Z,66.14
2018-11-04T10:32:42.169Z,65.71
2018-11-04T10:35:08.680Z,65.45
2018-11-04T10:37:35.204Z,65.96
2018-11-04T10:40:01.871Z,64.91
2018-11-04T10:42:28.622Z,63.70
2018-11-04T10:44:55.199Z,63.25
2018-11-04T10:47:22.937Z,65.24
2018-11-04T10:49:50.137Z,64.43
2018-11-04T10:52:18.196Z,64.31
2018-11-04T10:54:45.373Z,64.56
2018-11-04T10:57:12.621Z,65.29
2018-11-04T10:59:39.821Z,65.10
2018-11-04T11:02:06.552Z,65.61
2018-11-04T11:04:35.265Z,64.37
2018-11-04T11:07:02.345Z,64.32
2018-11-04T11:09:29.629Z,64.82
2018-11-04T11:11:56.240Z,64.60
2018-11-04T11:14:22.714Z,65.15
2018-11-04T11:16:49.830Z,65.30
2018-11-04T11:19:17.721Z,65.06
2018-11-04T11:21:44.993Z,64.67
2018-11-04T11:24:11.751Z,64.54
2018-11-04T11:26:38.490Z,64.95
2018-11-04T11:29:06.297Z,64.44
2018-11-04T11:31:33.662Z,64.44
2018-11-04T11:34:01.299Z,64.29
2018-11-04T11:36:30.333Z,64.42
2018-11-04T11:41:29.211Z,64.40
2018-11-04T11:43:56.269Z,64.53
2018-11-04T11:48:54.918Z,63.46
2018-11-04T11:51:21.596Z,63.17
2018-11-04T11:53:48.259Z,62.53
2018-11-04T11:58:47.345Z,62.56
2018-11-04T12:01:13.921Z,63.72
2018-11-04T12:03:41.084Z,63.64
2018-11-04T12:06:08.220Z,64.20
2018-11-04T12:08:35.266Z,64.50
2018-11-04T12:11:02.437Z,63.78
2018-11-04T12:13:29.112Z,62.53
2018-11-04T12:15:55.562Z,62.66
2018-11-04T12:18:22.230Z,61.24
2018-11-04T12:20:49.057Z,61.38
2018-11-04T12:23:15.794Z,61.16
2018-11-04T12:25:43.158Z,61.32
2018-11-04T12:28:10.436Z,61.64
2018-11-04T12:30:37.753Z,61.00
2018-11-04T12:33:04.894Z,58.47
2018-11-04T12:35:31.448Z,59.33
2018-11-04T12:37:58.457Z,59.85
2018-11-04T12:40:25.081Z,59.94
2018-11-04T12:42:51.827Z,61.28
2018-11-04T12:45:18.322Z,60.64
2018-11-04T12:47:45.512Z,61.43
2018-11-04T12:50:13.039Z,61.97
2018-11-04T12:52:40.562Z,61.69
2018-11-04T12:55:07.981Z,61.55
2018-11-04T12:57:34.617Z,61.22
2018-11-04T13:00:01.904Z,61.82
2018-11-04T13:02:28.414Z,60.60
2018-11-04T13:04:55.738Z,61.57
2018-11-04T13:07:22.390Z,60.96
2018-11-04T13:09:49.871Z,60.95
2018-11-04T13:12:16.474Z,60.61
2018-11-04T13:14:43.893Z,62.09
2018-11-04T13:19:45.228Z,58.64
2018-11-04T13:22:11.928Z,57.18
2018-11-04T13:24:39.903Z,59.20
2018-11-04T13:27:08.373Z,58.82
2018-11-04T13:29:35.923Z,59.48
2018-11-04T13:32:04.691Z,60.70
2018-11-04T13:34:32.127Z,58.42
2018-11-04T13:36:58.853Z,58.10
2018-11-04T13:39:25.604Z,59.63
2018-11-04T13:41:52.160Z,61.55
2018-11-04T13:44:19.202Z,60.93
2018-11-04T13:46:47.135Z,60.75
2018-11-04T13:49:14.511Z,60.61
2018-11-04T13:51:42.422Z,61.14
2018-11-04T13:54:10.143Z,60.49
2018-11-04T13:56:36.660Z,59.01
2018-11-04T13:59:04.476Z,58.84
2018-11-04T14:01:30.968Z,59.02
2018-11-04T14:03:57.465Z,60.38
2018-11-04T14:06:24.523Z,60.94
2018-11-04T14:08:51.027Z,60.47
2018-11-04T14:11:19.982Z,61.27
2018-11-04T14:13:50.362Z,61.69
2018-11-04T14:16:16.820Z,60.75
2018-11-04T14:18:43.451Z,60.24
2018-11-04T14:21:10.020Z,61.15
2018-11-04T14:23:36.533Z,60.87
2018-11-04T14:26:03.963Z,61.36
2018-11-04T14:28:30.988Z,60.78
2018-11-04T14:30:57.894Z,60.28
2018-11-04T14:33:24.893Z,60.15
2018-11-04T14:35:51.436Z,60.52
2018-11-04T14:38:19.402Z,60.78
2018-11-04T14:40:46.845Z,61.26
2018-11-04T14:43:13.362Z,61.04
2018-11-04T14:45:42.359Z,60.18
2018-11-04T14:48:15.043Z,61.39
2018-11-04T14:50:42.631Z,61.50
2018-11-04T14:53:11.055Z,61.45
2018-11-04T14:55:41.608Z,60.96
2018-11-04T14:58:10.758Z,61.43
2018-11-04T15:00:41.974Z,60.75
2018-11-04T15:03:09.685Z,60.53
2018-11-04T15:08:14.259Z,60.48
2018-11-04T15:10:43.577Z,60.21
2018-11-04T15:13:12.243Z,60.64
2018-11-04T15:15:40.809Z,60.41
2018-11-04T15:20:49.093Z,61.84
2018-11-04T15:23:20.081Z,62.10
2018-11-04T15:25:49.969Z,61.17
2018-11-04T15:28:18.735Z,61.10
2018-11-04T15:30:48.079Z,61.21
2018-11-04T15:33:16.270Z,62.18
2018-11-04T15:35:46.174Z,61.76
2018-11-04T15:40:50.466Z,60.55
2018-11-04T15:43:17.716Z,61.07
2018-11-04T15:45:46.578Z,61.88
2018-11-04T15:48:14.507Z,62.36
2018-11-04T15:50:46.113Z,62.73
2018-11-04T15:53:13.023Z,62.12
2018-11-04T15:55:40.443Z,62.01
2018-11-04T15:58:06.992Z,62.33
2018-11-04T16:00:33.650Z,62.52
2018-11-04T16:03:00.671Z,62.84
2018-11-04T16:05:28.442Z,63.12
2018-11-04T16:07:55.519Z,62.76
2018-11-04T16:10:23.774Z,62.54
2018-11-04T16:12:51.001Z,63.00
2018-11-04T16:15:17.489Z,63.46
2018-11-04T16:17:45.335Z,62.59
2018-11-04T16:20:12.144Z,62.55
2018-11-04T16:22:38.819Z,62.59
2018-11-04T16:25:05.827Z,61.80
2018-11-04T16:27:33.109Z,63.34
2018-11-04T16:29:59.780Z,63.46
2018-11-04T16:32:27.808Z,63.56
2018-11-04T16:34:55.421Z,63.28
2018-11-04T16:37:22.589Z,63.08
2018-11-04T16:39:50.256Z,62.52
2018-11-04T16:42:16.849Z,63.10
2018-11-04T16:44:43.768Z,62.50
2018-11-04T16:47:10.272Z,62.74
2018-11-04T16:52:12.457Z,62.88
2018-11-04T16:54:39.926Z,62.92
2018-11-04T16:57:07.442Z,62.69
2018-11-04T16:59:34.184Z,63.02
2018-11-04T17:02:01.778Z,63.75
2018-11-04T17:04:29.420Z,63.77
2018-11-04T17:06:56.078Z,63.39
2018-11-04T17:09:26.394Z,63.49
2018-11-04T17:11:54.233Z,63.46
2018-11-04T17:14:20.912Z,63.08
2018-11-04T17:16:49.392Z,62.98
2018-11-04T17:19:16.958Z,63.45
2018-11-04T17:21:45.728Z,63.37
2018-11-04T17:24:12.481Z,63.71
2018-11-04T17:26:39.105Z,63.43
2018-11-04T17:31:38.722Z,63.49
2018-11-04T17:34:05.569Z,62.29
2018-11-04T17:36:32.266Z,63.29
2018-11-04T17:39:00.622Z,62.48
2018-11-04T17:41:29.211Z,63.06
2018-11-04T17:43:57.325Z,63.08
2018-11-04T17:46:24.998Z,63.59
2018-11-04T17:48:52.256Z,64.33
2018-11-04T17:51:19.475Z,63.00
2018-11-04T17:53:46.094Z,63.38
2018-11-04T17:56:13.354Z,63.69
2018-11-04T17:58:41.407Z,64.06
2018-11-04T18:01:08.570Z,63.33
2018-11-04T18:03:36.139Z,63.58
2018-11-04T18:06:03.496Z,64.34
2018-11-04T18:08:31.302Z,63.88
2018-11-04T18:10:59.576Z,63.31
2018-11-04T18:13:26.376Z,64.02
2018-11-04T18:15:54.141Z,63.50
2018-11-04T18:18:20.789Z,63.99
2018-11-04T18:20:48.079Z,63.37
2018-11-04T18:23:15.034Z,63.08
2018-11-04T18:25:42.499Z,64.06
2018-11-04T18:28:09.015Z,63.88
2018-11-04T18:30:36.026Z,63.08
2018-11-04T18:33:03.570Z,63.26
2018-11-04T18:35:30.967Z,63.39
2018-11-04T18:37:57.644Z,63.59
2018-11-04T18:40:24.847Z,63.55
2018-11-04T18:42:52.219Z,63.59
2018-11-04T18:45:19.758Z,63.27
2018-11-04T18:47:47.070Z,63.57
2018-11-04T18:50:16.567Z,63.19
2018-11-04T18:52:44.634Z,63.79
2018-11-04T18:55:12.366Z,64.45
2018-11-04T18:57:39.683Z,64.22
2018-11-04T19:00:07.742Z,64.22
2018-11-04T19:02:35.093Z,64.08
2018-11-04T19:05:04.203Z,63.37
2018-11-04T19:07:30.976Z,63.97
2018-11-04T19:09:59.267Z,64.14
2018-11-04T19:12:25.893Z,63.65
2018-11-04T19:14:53.236Z,63.82
2018-11-04T19:17:20.249Z,63.75
2018-11-04T19:19:46.796Z,63.19
2018-11-04T19:22:14.441Z,63.48
2018-11-04T19:24:43.209Z,64.15
2018-11-04T19:27:09.788Z,63.42
2018-11-04T19:29:37.850Z,62.64
2018-11-04T19:32:05.040Z,63.41
2018-11-04T19:34:32.170Z,64.39
2018-11-04T19:36:59.442Z,64.29
2018-11-04T19:39:26.190Z,64.64
2018-11-04T19:41:53.427Z,64.21
2018-11-04T19:44:20.457Z,64.51
2018-11-04T19:46:47.799Z,64.73
2018-11-04T19:49:15.243Z,64.67
2018-11-04T19:51:42.113Z,64.61
2018-11-04T19:54:09.281Z,64.99
2018-11-04T19:56:35.899Z,64.73
2018-11-04T19:59:03.371Z,65.28
2018-11-04T20:01:30.763Z,64.63
2018-11-04T20:03:59.608Z,64.68
2018-11-04T20:06:27.420Z,64.75
2018-11-04T20:08:55.150Z,64.02
2018-11-04T20:11:22.033Z,64.00
2018-11-04T20:13:50.196Z,64.87
2018-11-04T20:16:17.482Z,64.50
2018-11-04T20:18:45.156Z,64.71
2018-11-04T20:23:45.932Z,64.21
2018-11-04T20:26:14.314Z,63.75
2018-11-04T20:28:41.657Z,64.34
2018-11-04T20:33:45.115Z,64.12
2018-11-04T20:36:14.000Z,65.23
2018-11-04T20:38:41.331Z,64.73
2018-11-04T20:41:08.525Z,64.77
2018-11-04T20:43:35.247Z,64.27
2018-11-04T20:46:04.580Z,65.03
2018-11-04T20:48:32.239Z,64.05
2018-11-04T20:51:00.303Z,63.99
2018-11-04T20:53:26.915Z,64.97
2018-11-04T20:55:54.361Z,64.41
2018-11-04T20:58:21.140Z,64.69
2018-11-04T21:00:48.933Z,64.83
2018-11-04T21:03:16.274Z,64.50
2018-11-04T21:05:43.652Z,65.14
2018-11-04T21:08:10.809Z,65.08
2018-11-04T21:10:37.489Z,65.47
2018-11-04T21:13:04.872Z,65.16
2018-11-04T21:15:31.561Z,65.23
2018-11-04T21:17:59.131Z,64.68
2018-11-04T21:20:25.622Z,64.33
2018-11-04T21:22:52.937Z,64.61
2018-11-04T21:25:20.826Z,64.92
2018-11-04T21:27:47.462Z,64.87
2018-11-04T21:30:15.126Z,64.97
2018-11-04T21:32:41.635Z,64.38
2018-11-04T21:35:08.817Z,65.08
2018-11-04T21:37:36.166Z,64.70
2018-11-04T21:40:03.851Z,64.15
2018-11-04T21:42:33.807Z,64.47
2018-11-04T21:45:01.469Z,64.70
2018-11-04T21:49:59.942Z,64.19
2018-11-04T21:52:26.786Z,64.47
2018-11-04T21:54:53.615Z,63.63
2018-11-04T21:57:21.018Z,64.15
2018-11-04T21:59:48.386Z,64.30
2018-11-04T22:02:17.914Z,62.81
2018-11-04T22:04:45.685Z,62.81
2018-11-04T22:07:12.846Z,63.03
2018-11-04T22:09:39.467Z,63.89
2018-11-04T22:12:06.056Z,63.49
2018-11-04T22:14:33.049Z,64.48
2018-11-04T22:17:01.195Z,64.13
2018-11-04T22:19:28.564Z,64.04
2018-11-04T22:21:55.199Z,63.34
2018-11-04T22:24:22.134Z,63.02
2018-11-04T22:26:49.990Z,63.85
2018-11-04T22:29:17.405Z,61.82
2018-11-04T22:31:44.955Z,62.69
2018-11-04T22:34:13.907Z,63.11
2018-11-04T22:36:40.866Z,63.66
2018-11-04T22:39:08.533Z,63.32
2018-11-04T22:41:35.666Z,63.81
2018-11-04T22:44:04.899Z,63.20
2018-11-04T22:46:31.435Z,62.48
2018-11-04T22:48:59.475Z,62.84
2018-11-04T22:51:26.403Z,64.17
2018-11-04T22:53:53.403Z,63.26
2018-11-04T22:56:20.248Z,62.58
2018-11-04T22:58:48.215Z,63.05
2018-11-04T23:01:16.387Z,63.54
2018-11-04T23:03:43.629Z,64.35
2018-11-04T23:06:10.351Z,64.27
2018-11-04T23:08:37.672Z,63.47
2018-11-04T23:11:04.903Z,64.25
2018-11-04T23:13:32.560Z,63.19
2018-11-04T23:15:59.323Z,62.93
2018-11-04T23:18:26.107Z,63.05
2018-11-04T23:23:26.380Z,63.51
2018-11-04T23:25:53.988Z,62.72
2018-11-04T23:28:21.253Z,62.70
2018-11-04T23:30:49.084Z,63.04
2018-11-04T23:33:17.000Z,63.46
2018-11-04T23:35:45.017Z,63.83
2018-11-04T23:38:11.645Z,64.92
2018-11-04T23:40:38.368Z,64.54
2018-11-04T23:43:05.920Z,63.66
2018-11-04T23:45:36.606Z,64.37
2018-11-04T23:48:03.977Z,65.11
2018-11-04T23:50:30.953Z,65.47
2018-11-04T23:52:58.327Z,65.73
2018-11-04T23:55:25.358Z,64.69
2018-11-04T23:57:54.110Z,65.10
